createdAt,value
2022-10-05T00:00:23.382Z,10.60
2022-10-05T00:06:30.090Z,10.60
2022-10-05T00:12:35.811Z,10.40
2022-10-05T00:18:39.066Z,10.50
2022-10-05T00:24:56.333Z,10.40
2022-10-05T00:31:00.918Z,10.30
2022-10-05T00:37:05.532Z,10.30
2022-10-05T00:43:55.635Z,10.20
2022-10-05T00:50:50.101Z,10.20
2022-10-05T00:57:08.065Z,10.20
2022-10-05T01:03:30.290Z,10.20
2022-10-05T01:09:59.477Z,10.30
2022-10-05T01:16:14.415Z,10.30
2022-10-05T01:22:42.366Z,10.30
2022-10-05T01:29:17.579Z,10.30
2022-10-05T01:36:21.185Z,10.30
2022-10-05T01:43:15.482Z,10.30
2022-10-05T01:49:39.038Z,10.10
2022-10-05T01:56:04.866Z,10.00
2022-10-05T02:02:12.917Z,10.10
2022-10-05T02:08:30.075Z,10.20
2022-10-05T02:14:49.576Z,10.00
2022-10-05T02:20:55.379Z,9.90
2022-10-05T02:26:58.705Z,9.90
2022-10-05T02:33:10.387Z,9.90
2022-10-05T02:39:49.350Z,10.00
2022-10-05T02:46:20.547Z,10.00
2022-10-05T02:52:49.141Z,10.10
2022-10-05T02:59:26.949Z,10.20
2022-10-05T03:05:52.527Z,10.20
2022-10-05T03:12:09.224Z,10.20
2022-10-05T03:18:24.615Z,10.10
2022-10-05T03:25:09.633Z,10.00
2022-10-05T03:31:42.190Z,10.00
2022-10-05T03:38:31.788Z,9.90
2022-10-05T03:44:59.926Z,9.80
2022-10-05T03:51:15.390Z,9.70
2022-10-05T03:57:36.869Z,9.70
2022-10-05T04:03:54.965Z,9.70
2022-10-05T04:10:00.007Z,9.70
2022-10-05T04:16:14.144Z,9.70
2022-10-05T04:22:29.939Z,9.60
2022-10-05T04:28:46.392Z,9.50
2022-10-05T04:35:09.653Z,9.50
2022-10-05T04:42:16.270Z,9.60
2022-10-05T04:48:54.562Z,9.70
2022-10-05T04:55:19.119Z,9.60
2022-10-05T05:02:12.384Z,9.50
2022-10-05T05:08:58.965Z,9.40
2022-10-05T05:15:35.735Z,9.30
2022-10-05T05:22:22.321Z,9.30
2022-10-05T05:28:51.009Z,9.40
2022-10-05T05:35:25.501Z,9.40
2022-10-05T05:41:39.233Z,9.40
2022-10-05T05:47:52.027Z,9.50
2022-10-05T05:54:21.821Z,9.40
2022-10-05T06:01:01.539Z,9.40
2022-10-05T06:07:06.135Z,9.50
2022-10-05T06:13:43.256Z,9.50
2022-10-05T06:19:47.730Z,9.50
2022-10-05T06:26:21.671Z,9.70
2022-10-05T06:33:04.695Z,10.00
2022-10-05T06:39:43.517Z,10.20
2022-10-05T06:46:20.700Z,10.40
2022-10-05T06:52:35.876Z,10.60
2022-10-05T06:59:04.495Z,10.80
2022-10-05T07:05:30.670Z,11.00
2022-10-05T07:12:18.581Z,11.00
2022-10-05T07:18:37.363Z,11.10
2022-10-05T07:25:00.603Z,11.10
2022-10-05T07:31:40.055Z,11.10
2022-10-05T07:37:55.359Z,11.20
2022-10-05T07:44:29.470Z,11.30
2022-10-05T07:51:02.957Z,11.60
2022-10-05T07:57:24.125Z,11.90
2022-10-05T08:04:19.738Z,12.30
2022-10-05T08:10:59.848Z,13.00
2022-10-05T08:17:25.400Z,13.40
2022-10-05T08:23:47.087Z,13.70
2022-10-05T08:30:06.472Z,13.80
2022-10-05T08:36:19.752Z,14.00
2022-10-05T08:42:54.282Z,14.10
2022-10-05T08:49:20.224Z,14.30
2022-10-05T08:56:03.002Z,14.30
2022-10-05T09:02:32.645Z,14.20
2022-10-05T09:08:47.675Z,14.20
2022-10-05T09:15:51.972Z,14.30
2022-10-05T09:22:21.438Z,14.80
2022-10-05T09:28:45.602Z,15.10
2022-10-05T09:35:15.877Z,14.70
2022-10-05T09:41:27.670Z,14.60
2022-10-05T09:48:49.276Z,14.50
2022-10-05T09:55:09.935Z,14.70
2022-10-05T10:01:40.527Z,16.20
2022-10-05T10:08:23.335Z,17.70
2022-10-05T10:15:03.214Z,17.60
2022-10-05T10:21:34.288Z,17.20
2022-10-05T10:28:29.515Z,17.00
2022-10-05T10:35:06.556Z,16.60
2022-10-05T10:41:37.168Z,16.40
2022-10-05T10:48:05.013Z,16.20
2022-10-05T10:54:34.716Z,16.30
2022-10-05T11:01:01.108Z,16.20
2022-10-05T11:07:45.132Z,16.20
2022-10-05T11:14:24.632Z,16.40
2022-10-05T11:21:17.225Z,16.30
2022-10-05T11:27:58.134Z,16.40
2022-10-05T11:34:49.116Z,16.50
2022-10-05T11:41:19.799Z,16.70
2022-10-05T11:47:40.392Z,16.90
2022-10-05T11:54:03.188Z,17.50
2022-10-05T12:00:21.875Z,18.50
2022-10-05T12:06:39.318Z,18.30
2022-10-05T12:13:07.707Z,18.00
2022-10-05T12:19:29.785Z,18.40
2022-10-05T12:25:43.576Z,18.70
2022-10-05T12:32:07.691Z,18.50
2022-10-05T12:38:56.708Z,18.10
2022-10-05T12:45:04.907Z,17.90
2022-10-05T12:51:10.941Z,18.90
2022-10-05T12:57:38.196Z,19.60
2022-10-05T13:04:15.153Z,19.30
2022-10-05T13:10:52.798Z,18.90
2022-10-05T13:17:30.965Z,19.40
2022-10-05T13:23:59.572Z,19.90
2022-10-05T13:30:20.600Z,21.60
2022-10-05T13:37:12.283Z,24.20
2022-10-05T13:43:45.099Z,24.20
2022-10-05T13:50:21.614Z,24.90
2022-10-05T13:56:42.562Z,25.40
2022-10-05T14:02:56.678Z,25.30
2022-10-05T14:09:01.095Z,25.90
2022-10-05T14:15:20.143Z,27.10
2022-10-05T14:28:30.593Z,26.40
2022-10-05T14:34:45.538Z,26.70
2022-10-05T14:41:08.461Z,26.70
2022-10-05T14:47:45.519Z,26.60
2022-10-05T14:54:02.538Z,27.40
2022-10-05T15:00:18.652Z,26.60
2022-10-05T15:07:16.605Z,26.30
2022-10-05T15:13:23.692Z,26.00
2022-10-05T15:20:35.106Z,26.40
2022-10-05T15:27:03.569Z,26.70
2022-10-05T15:33:52.450Z,27.70
2022-10-05T15:46:56.849Z,27.10
2022-10-05T15:53:26.143Z,26.60
2022-10-05T15:59:53.645Z,26.30
2022-10-05T16:06:31.840Z,26.70
2022-10-05T16:13:04.486Z,25.50
2022-10-05T16:19:19.963Z,25.20
2022-10-05T16:25:40.068Z,23.80
2022-10-05T16:32:39.399Z,21.60
2022-10-05T16:39:36.879Z,20.10
2022-10-05T16:45:45.459Z,19.40
2022-10-05T16:51:47.798Z,18.70
2022-10-05T16:57:55.667Z,18.20
2022-10-05T17:04:31.882Z,17.50
2022-10-05T17:11:17.199Z,16.90
2022-10-05T17:17:43.609Z,16.40
2022-10-05T17:24:11.865Z,16.10
2022-10-05T17:30:27.609Z,15.90
2022-10-05T17:36:44.202Z,15.60
2022-10-05T17:42:48.470Z,15.50
2022-10-05T17:48:50.274Z,15.60
2022-10-05T17:55:19.828Z,15.80
2022-10-05T18:07:40.313Z,16.10
2022-10-05T18:13:50.292Z,16.40
2022-10-05T18:20:15.208Z,16.50
2022-10-05T18:26:29.982Z,16.50
2022-10-05T18:32:43.617Z,16.40
2022-10-05T18:39:33.145Z,16.40
2022-10-05T18:46:17.951Z,16.50
2022-10-05T18:52:33.437Z,16.50
2022-10-05T18:59:28.976Z,16.30
2022-10-05T19:05:49.558Z,16.20
2022-10-05T19:12:31.658Z,16.10
2022-10-05T19:19:01.250Z,15.90
2022-10-05T19:25:52.710Z,15.80
2022-10-05T19:32:18.570Z,15.60
2022-10-05T19:38:34.593Z,15.70
2022-10-05T19:45:29.516Z,15.80
2022-10-05T19:51:52.835Z,15.80
2022-10-05T19:58:01.252Z,15.80
2022-10-05T20:04:05.166Z,16.10
2022-10-05T20:10:30.710Z,16.30
2022-10-05T20:16:52.884Z,16.50
2022-10-05T20:23:21.573Z,16.60
2022-10-05T20:29:23.527Z,16.60
2022-10-05T20:35:30.682Z,16.60
2022-10-05T20:41:32.720Z,16.60
2022-10-05T20:47:37.543Z,16.60
2022-10-05T20:53:39.428Z,16.50
2022-10-05T20:59:41.270Z,16.40
2022-10-05T21:05:43.158Z,16.20
2022-10-05T21:11:47.191Z,16.00
2022-10-05T21:17:50.803Z,16.10
2022-10-05T21:23:52.892Z,16.10
2022-10-05T21:29:54.760Z,16.10
2022-10-05T21:35:56.582Z,16.10
2022-10-05T21:41:58.613Z,16.20
2022-10-05T21:48:15.336Z,16.50
2022-10-05T22:07:19.812Z,16.80
2022-10-05T22:13:26.412Z,16.90
2022-10-05T22:19:28.397Z,17.00
2022-10-05T22:25:33.866Z,17.00
2022-10-05T22:31:36.147Z,17.00
2022-10-05T22:37:38.243Z,17.00
2022-10-05T22:43:40.198Z,17.00
2022-10-05T22:49:42.066Z,17.10
2022-10-05T22:55:43.995Z,17.20
2022-10-05T23:01:46.201Z,17.20
2022-10-05T23:07:48.291Z,17.20
2022-10-05T23:13:59.167Z,17.20
2022-10-05T23:20:01.738Z,17.20
2022-10-05T23:26:06.710Z,17.20
2022-10-05T23:32:08.915Z,17.30
2022-10-05T23:38:22.547Z,17.20
2022-10-05T23:44:24.504Z,17.30
2022-10-05T23:50:27.506Z,17.30
2022-10-05T23:56:29.508Z,17.30
